Main page
METAR-TAF:

METAR-TAF

Airports :

RAF Northolt

Northolt, England

latitude: 51-33N, longitude: 000-25W, elevation: 38 m

Current weather observation

The report was made 18 minutes ago, at 15:50 UTC
Wind 10 kt from the South
Temperature 16°C
Humidity 34%
Pressure 1018 hPa
Visibility 10 km or more
no clouds below 1500 m and no cumulonimbus

METAR: EGWU 041550Z 17010KT CAVOK 16/00 Q1018 NOSIG RMK BLU BLU

Time: 17:08 (16:08 UTC)

Forecast

The report was made 2 hours and 37 minutes ago, at 13:31 UTC
Forecast valid from 04 at 15 UTC to 05 at 09 UTC
Wind 10 kt from the South
Visibility 10 km or more
Few clouds at a height of 4800 ft

TAF: EGWU 041331Z 0415/0509 18010KT 9999 FEW048

Weather observations and forecasts of more than 4000 airports (METAR and TAF reports).

The available stations are represented by yellow and red dots on the map.

Hover mouse over dot to see the name of the station.

Then click to see weather observations and forecasts.

To change the map : click on the green buttons with a black cross to zoom in, on the green button with a dash to zoom out, or on the green arrows for adjacent maps.


METAR-TAF: